createdAt,value
2017-10-09T00:01:47.537Z,99680.45
2017-10-09T00:04:13.752Z,99678.58
2017-10-09T00:06:39.980Z,99684.02
2017-10-09T00:09:06.225Z,99681.97
2017-10-09T00:11:32.448Z,99679.61
2017-10-09T00:13:58.700Z,99685.77
2017-10-09T00:16:24.931Z,99690.29
2017-10-09T00:18:51.161Z,99685.98
2017-10-09T00:21:17.399Z,99687.63
2017-10-09T00:23:43.625Z,99686.16
2017-10-09T00:26:09.858Z,99680.31
2017-10-09T00:28:36.101Z,99689.06
2017-10-09T00:31:02.347Z,99675.30
2017-10-09T00:33:28.590Z,99686.47
2017-10-09T00:35:54.811Z,99678.98
2017-10-09T00:38:21.073Z,99679.06
2017-10-09T00:40:47.306Z,99681.44
2017-10-09T00:43:13.517Z,99684.73
2017-10-09T00:45:39.745Z,99683.83
2017-10-09T00:48:05.974Z,99682.06
2017-10-09T00:50:32.227Z,99689.75
2017-10-09T00:52:58.525Z,99689.45
2017-10-09T00:55:24.759Z,99683.60
2017-10-09T00:57:50.990Z,99688.84
2017-10-09T01:00:17.236Z,99685.66
2017-10-09T01:02:43.483Z,99685.45
2017-10-09T01:05:09.716Z,99686.78
2017-10-09T01:07:35.946Z,99692.44
2017-10-09T01:10:02.184Z,99695.01
2017-10-09T01:12:28.402Z,99697.45
2017-10-09T01:14:54.668Z,99695.92
2017-10-09T01:17:20.883Z,99695.23
2017-10-09T01:19:47.148Z,99695.53
2017-10-09T01:22:13.388Z,99698.59
2017-10-09T01:24:39.601Z,99695.94
2017-10-09T01:27:05.834Z,99694.80
2017-10-09T01:29:32.074Z,99695.72
2017-10-09T01:31:58.319Z,99690.89
2017-10-09T01:34:24.622Z,99690.66
2017-10-09T01:36:50.862Z,99670.53
2017-10-09T01:39:17.094Z,99682.22
2017-10-09T01:41:43.315Z,99681.51
2017-10-09T01:44:09.550Z,99677.28
2017-10-09T01:46:35.781Z,99682.64
2017-10-09T01:49:01.999Z,99676.66
2017-10-09T01:51:28.258Z,99681.31
2017-10-09T01:53:54.470Z,99685.33
2017-10-09T01:56:20.705Z,99678.73
2017-10-09T01:58:46.952Z,99683.48
2017-10-09T02:01:13.322Z,99680.29
2017-10-09T02:03:39.552Z,99686.06
2017-10-09T02:06:05.791Z,99690.98
2017-10-09T02:08:32.016Z,99691.73
2017-10-09T02:10:58.254Z,99696.04
2017-10-09T02:13:24.460Z,99691.80
2017-10-09T02:15:50.901Z,99691.32
2017-10-09T02:18:17.125Z,99695.51
2017-10-09T02:20:43.356Z,99693.30
2017-10-09T02:23:09.603Z,99692.67
2017-10-09T02:25:35.823Z,99688.66
2017-10-09T02:28:02.076Z,99691.31
2017-10-09T02:30:28.324Z,99694.11
2017-10-09T02:32:54.693Z,99690.71
2017-10-09T02:35:20.945Z,99694.66
2017-10-09T02:37:47.166Z,99702.02
2017-10-09T02:40:13.414Z,99700.16
2017-10-09T02:42:39.643Z,99697.38
2017-10-09T02:45:05.850Z,99702.39
2017-10-09T02:47:32.085Z,99702.28
2017-10-09T02:49:58.325Z,99706.31
2017-10-09T02:52:24.608Z,99699.69
2017-10-09T02:54:50.825Z,99705.73
2017-10-09T02:57:17.040Z,99702.18
2017-10-09T02:59:43.412Z,99708.21
2017-10-09T03:02:09.626Z,99705.17
2017-10-09T03:04:35.856Z,99701.75
2017-10-09T03:07:02.096Z,99706.25
2017-10-09T03:09:28.329Z,99705.50
2017-10-09T03:11:54.554Z,99707.47
2017-10-09T03:14:20.767Z,99701.01
2017-10-09T03:16:47.027Z,99702.09
2017-10-09T03:19:13.240Z,99702.01
2017-10-09T03:21:39.458Z,99712.06
2017-10-09T03:24:05.689Z,99710.26
2017-10-09T03:26:31.913Z,99711.13
2017-10-09T03:28:58.179Z,99715.17
2017-10-09T03:31:24.412Z,99707.37
2017-10-09T03:33:50.647Z,99707.86
2017-10-09T03:36:16.860Z,99710.86
2017-10-09T03:38:43.085Z,99700.95
2017-10-09T03:41:09.313Z,99712.56
2017-10-09T03:43:35.576Z,99718.45
2017-10-09T03:46:01.781Z,99721.59
2017-10-09T03:48:28.042Z,99719.19
2017-10-09T03:50:54.432Z,99719.64
2017-10-09T03:53:20.666Z,99721.69
2017-10-09T03:55:46.900Z,99726.97
2017-10-09T03:58:13.124Z,99722.62
2017-10-09T04:00:39.354Z,99720.53
2017-10-09T04:03:05.575Z,99728.23
2017-10-09T04:05:31.847Z,99719.12
2017-10-09T04:07:58.120Z,99727.37
2017-10-09T04:10:24.333Z,99723.54
2017-10-09T04:12:50.553Z,99729.64
2017-10-09T04:15:16.772Z,99731.39
2017-10-09T04:17:43.039Z,99735.63
2017-10-09T04:20:09.256Z,99738.88
2017-10-09T04:22:35.477Z,99745.61
2017-10-09T04:25:01.727Z,99738.61
2017-10-09T04:27:27.951Z,99748.28
2017-10-09T04:29:54.175Z,99753.53
2017-10-09T04:32:20.390Z,99754.12
2017-10-09T04:34:46.601Z,99758.14
2017-10-09T04:37:12.844Z,99758.44
2017-10-09T04:39:39.099Z,99754.53
2017-10-09T04:42:05.349Z,99755.67
2017-10-09T04:44:31.569Z,99752.88
2017-10-09T04:46:57.760Z,99763.05
2017-10-09T04:49:24.004Z,99759.44
2017-10-09T04:51:50.244Z,99760.81
2017-10-09T04:54:16.538Z,99759.77
2017-10-09T04:56:42.764Z,99766.39
2017-10-09T04:59:08.994Z,99771.69
2017-10-09T05:01:35.232Z,99776.44
2017-10-09T05:04:01.477Z,99773.30
2017-10-09T05:06:27.692Z,99761.23
2017-10-09T05:08:53.914Z,99773.30
2017-10-09T05:11:20.129Z,99772.66
2017-10-09T05:13:46.348Z,99778.78
2017-10-09T05:16:12.748Z,99778.88
2017-10-09T05:18:39.016Z,99782.47
2017-10-09T05:21:05.231Z,99784.67
2017-10-09T05:23:31.441Z,99781.65
2017-10-09T05:25:57.866Z,99790.16
2017-10-09T05:28:24.100Z,99791.15
2017-10-09T05:30:50.328Z,99789.86
2017-10-09T05:33:16.556Z,99794.58
2017-10-09T05:35:42.792Z,99797.42
2017-10-09T05:38:09.203Z,99805.84
2017-10-09T05:40:35.420Z,99803.36
2017-10-09T05:43:01.684Z,99803.65
2017-10-09T05:45:27.911Z,99800.81
2017-10-09T05:47:54.141Z,99806.26
2017-10-09T05:50:20.359Z,99808.77
2017-10-09T05:52:46.564Z,99815.69
2017-10-09T05:55:12.796Z,99810.67
2017-10-09T05:57:39.030Z,99814.09
2017-10-09T06:00:05.256Z,99810.47
2017-10-09T06:02:31.618Z,99811.66
2017-10-09T06:04:57.843Z,99809.19
2017-10-09T06:07:24.106Z,99807.06
2017-10-09T06:09:50.396Z,99803.20
2017-10-09T06:12:16.611Z,99808.72
2017-10-09T06:14:42.821Z,99807.84
2017-10-09T06:17:09.037Z,99802.41
2017-10-09T06:19:35.290Z,99806.38
2017-10-09T06:22:01.528Z,99812.50
2017-10-09T06:24:27.749Z,99813.20
2017-10-09T06:26:53.973Z,99809.58
2017-10-09T06:29:20.189Z,99819.41
2017-10-09T06:31:46.396Z,99814.12
2017-10-09T06:34:12.612Z,99818.92
2017-10-09T06:36:38.835Z,99821.27
2017-10-09T06:39:05.052Z,99818.19
2017-10-09T06:41:31.365Z,99823.55
2017-10-09T06:43:57.637Z,99826.80
2017-10-09T06:46:23.858Z,99818.53
2017-10-09T06:48:50.103Z,99815.41
2017-10-09T06:51:16.334Z,99818.80
2017-10-09T06:53:42.550Z,99809.45
2017-10-09T06:56:08.822Z,99816.31
2017-10-09T06:58:35.101Z,99813.70
2017-10-09T07:01:01.342Z,99816.75
2017-10-09T07:03:27.557Z,99811.80
2017-10-09T07:05:53.796Z,99821.86
2017-10-09T07:08:20.043Z,99814.06
2017-10-09T07:10:46.261Z,99823.17
2017-10-09T07:13:12.499Z,99817.56
2017-10-09T07:15:38.739Z,99819.34
2017-10-09T07:18:04.962Z,99819.09
2017-10-09T07:20:31.232Z,99821.61
2017-10-09T07:22:57.460Z,99828.78
2017-10-09T07:25:23.678Z,99833.48
2017-10-09T07:27:49.926Z,99833.04
2017-10-09T07:30:16.198Z,99843.70
2017-10-09T07:32:42.557Z,99846.94
2017-10-09T07:35:08.770Z,99850.66
2017-10-09T07:37:35.003Z,99852.14
2017-10-09T07:40:01.221Z,99851.14
2017-10-09T07:42:27.436Z,99855.28
2017-10-09T07:44:53.672Z,99854.38
2017-10-09T07:47:19.895Z,99849.29
2017-10-09T07:49:46.140Z,99860.45
2017-10-09T07:52:12.372Z,99844.35
2017-10-09T07:54:38.669Z,99863.08
2017-10-09T07:57:04.898Z,99859.22
2017-10-09T07:59:31.299Z,99860.24
2017-10-09T08:01:57.568Z,99869.33
2017-10-09T08:04:23.811Z,99872.02
2017-10-09T08:06:50.028Z,99870.03
2017-10-09T08:09:16.258Z,99868.66
2017-10-09T08:11:42.476Z,99875.70
2017-10-09T08:14:08.714Z,99880.77
2017-10-09T08:16:35.158Z,99884.24
2017-10-09T08:19:01.372Z,99880.73
2017-10-09T08:21:27.608Z,99880.45
2017-10-09T08:23:53.836Z,99884.38
2017-10-09T08:26:20.061Z,99889.81
2017-10-09T08:28:46.282Z,99892.22
2017-10-09T08:31:12.495Z,99894.36
2017-10-09T08:33:38.717Z,99891.14
2017-10-09T08:36:04.938Z,99899.71
2017-10-09T08:38:31.198Z,99887.58
2017-10-09T08:40:57.428Z,99889.16
2017-10-09T08:43:23.659Z,99885.66
2017-10-09T08:45:49.897Z,99892.88
2017-10-09T08:48:16.129Z,99883.50
2017-10-09T08:50:42.357Z,99891.72
2017-10-09T08:53:08.595Z,99894.98
2017-10-09T08:55:34.835Z,99892.39
2017-10-09T08:58:01.061Z,99885.27
2017-10-09T09:00:27.276Z,99885.80
2017-10-09T09:02:53.538Z,99894.07
2017-10-09T09:05:19.764Z,99895.47
2017-10-09T09:07:45.992Z,99899.89
2017-10-09T09:10:12.200Z,99894.29
2017-10-09T09:12:38.412Z,99891.83
2017-10-09T09:15:04.715Z,99891.78
2017-10-09T09:17:30.948Z,99895.05
2017-10-09T09:19:57.177Z,99889.05
2017-10-09T09:22:23.416Z,99892.17
2017-10-09T09:24:49.664Z,99894.78
2017-10-09T09:27:15.889Z,99882.03
2017-10-09T09:29:42.112Z,99899.48
2017-10-09T09:32:08.348Z,99898.09
2017-10-09T09:34:34.590Z,99896.80
2017-10-09T09:37:00.806Z,99894.18
2017-10-09T09:39:27.029Z,99897.98
2017-10-09T09:41:53.249Z,99903.25
2017-10-09T09:44:19.479Z,99903.33
2017-10-09T09:46:45.727Z,99910.34
2017-10-09T09:49:11.940Z,99914.68
2017-10-09T09:51:38.213Z,99899.00
2017-10-09T09:54:04.438Z,99912.73
2017-10-09T09:56:30.782Z,99915.39
2017-10-09T09:58:57.215Z,99914.16
2017-10-09T10:01:23.421Z,99902.47
2017-10-09T10:03:49.658Z,99905.89
2017-10-09T10:06:15.889Z,99901.33
2017-10-09T10:08:42.142Z,99894.46
2017-10-09T10:11:08.358Z,99892.53
2017-10-09T10:13:34.573Z,99899.22
2017-10-09T10:16:00.840Z,99908.52
2017-10-09T10:18:27.054Z,99913.91
2017-10-09T10:20:53.282Z,99909.73
2017-10-09T10:23:19.736Z,99914.33
2017-10-09T10:25:45.982Z,99911.85
2017-10-09T10:28:12.206Z,99903.72
2017-10-09T10:30:38.525Z,99904.95
2017-10-09T10:33:04.733Z,99903.55
2017-10-09T10:35:30.967Z,99898.41
2017-10-09T10:37:57.479Z,99897.89
2017-10-09T10:40:23.732Z,99901.67
2017-10-09T10:42:49.959Z,99900.66
2017-10-09T10:45:16.222Z,99901.41
2017-10-09T10:47:42.445Z,99899.33
2017-10-09T10:50:08.653Z,99902.02
2017-10-09T10:52:34.893Z,99884.52
2017-10-09T10:55:01.113Z,99883.84
2017-10-09T10:57:27.359Z,99887.58
2017-10-09T10:59:53.586Z,99885.56
2017-10-09T11:02:19.837Z,99885.48
2017-10-09T11:04:46.052Z,99873.67
2017-10-09T11:07:12.273Z,99882.45
2017-10-09T11:09:38.498Z,99881.93
2017-10-09T11:12:04.892Z,99887.31
2017-10-09T11:14:31.117Z,99880.61
2017-10-09T11:16:57.355Z,99879.48
2017-10-09T11:19:23.605Z,99881.74
2017-10-09T11:21:49.820Z,99884.31
2017-10-09T11:24:16.064Z,99882.97
2017-10-09T11:26:42.290Z,99888.02
2017-10-09T11:29:08.532Z,99898.89
2017-10-09T11:31:34.757Z,99898.59
2017-10-09T11:34:00.997Z,99898.55
2017-10-09T11:36:27.210Z,99894.78
2017-10-09T11:38:53.421Z,99891.16
2017-10-09T11:41:19.684Z,99889.45
2017-10-09T11:43:45.914Z,99886.49
2017-10-09T11:46:12.144Z,99888.06
2017-10-09T11:48:38.422Z,99891.74
2017-10-09T11:51:04.660Z,99891.41
2017-10-09T11:53:30.896Z,99893.97
2017-10-09T11:55:57.135Z,99892.48
2017-10-09T11:58:23.358Z,99891.77
2017-10-09T12:00:49.600Z,99887.83
2017-10-09T12:03:15.835Z,99887.47
2017-10-09T12:05:42.127Z,99877.09
2017-10-09T12:08:08.356Z,99878.75
2017-10-09T12:10:34.586Z,99874.71
2017-10-09T12:13:00.851Z,99877.47
2017-10-09T12:15:27.064Z,99872.82
2017-10-09T12:17:53.481Z,99872.48
2017-10-09T12:20:19.914Z,99877.77
2017-10-09T12:22:46.140Z,99870.56
2017-10-09T12:25:12.375Z,99875.42
2017-10-09T12:27:38.593Z,99876.99
2017-10-09T12:30:04.818Z,99879.04
2017-10-09T12:32:31.034Z,99878.60
2017-10-09T12:34:57.257Z,99882.27
2017-10-09T12:37:23.465Z,99871.37
2017-10-09T12:39:49.678Z,99884.08
2017-10-09T12:42:15.901Z,99881.34
2017-10-09T12:44:42.367Z,99891.36
2017-10-09T12:47:08.579Z,99892.43
2017-10-09T12:49:34.800Z,99884.16
2017-10-09T12:52:01.083Z,99892.65
2017-10-09T12:54:27.300Z,99889.09
2017-10-09T12:56:53.529Z,99885.64
2017-10-09T12:59:19.759Z,99894.06
2017-10-09T13:01:45.986Z,99899.91
2017-10-09T13:04:12.229Z,99898.61
2017-10-09T13:06:38.435Z,99907.86
2017-10-09T13:09:04.700Z,99912.03
2017-10-09T13:11:30.910Z,99897.78
2017-10-09T13:13:57.116Z,99918.75
2017-10-09T13:16:23.351Z,99916.86
2017-10-09T13:18:49.557Z,99909.37
2017-10-09T13:21:15.779Z,99911.09
2017-10-09T13:23:42.107Z,99909.74
2017-10-09T13:26:08.362Z,99903.59
2017-10-09T13:28:34.579Z,99907.67
2017-10-09T13:31:00.937Z,99905.70
2017-10-09T13:33:27.239Z,99905.34
2017-10-09T13:35:53.439Z,99903.99
2017-10-09T13:38:19.672Z,99895.09
2017-10-09T13:40:45.898Z,99895.75
2017-10-09T13:43:12.136Z,99899.67
2017-10-09T13:45:38.368Z,99893.50
2017-10-09T13:48:04.594Z,99893.19
2017-10-09T13:50:30.831Z,99892.80
2017-10-09T13:52:57.059Z,99892.22
2017-10-09T13:55:23.270Z,99899.94
2017-10-09T13:57:49.517Z,99892.99
2017-10-09T14:00:15.755Z,99892.74
2017-10-09T14:02:41.979Z,99896.31
2017-10-09T14:05:08.206Z,99892.76
2017-10-09T14:07:34.444Z,99897.58
2017-10-09T14:10:00.712Z,99893.84
2017-10-09T14:12:26.951Z,99894.58
2017-10-09T14:14:53.170Z,99900.08
2017-10-09T14:17:19.395Z,99899.41
2017-10-09T14:19:45.581Z,99906.35
2017-10-09T14:22:11.794Z,99902.28
2017-10-09T14:24:38.023Z,99903.33
2017-10-09T14:27:04.237Z,99898.59
2017-10-09T14:29:30.490Z,99896.98
2017-10-09T14:41:41.416Z,99910.14
2017-10-09T14:44:07.639Z,99914.51
2017-10-09T14:46:33.881Z,99912.31
2017-10-09T14:49:00.112Z,99917.98
2017-10-09T14:51:26.418Z,99912.82
2017-10-09T14:53:52.622Z,99919.74
2017-10-09T14:56:18.851Z,99922.70
2017-10-09T14:58:45.182Z,99918.22
2017-10-09T15:01:11.397Z,99922.52
2017-10-09T15:03:37.613Z,99924.66
2017-10-09T15:06:03.843Z,99924.34
2017-10-09T15:08:30.056Z,99923.90
2017-10-09T15:10:56.327Z,99919.73
2017-10-09T15:13:22.559Z,99927.37
2017-10-09T15:15:48.788Z,99933.37
2017-10-09T15:18:15.037Z,99938.97
2017-10-09T15:20:41.258Z,99935.21
2017-10-09T15:23:07.473Z,99937.40
2017-10-09T15:25:33.686Z,99938.73
2017-10-09T15:27:59.897Z,99937.59
2017-10-09T15:30:26.114Z,99934.41
2017-10-09T15:32:52.349Z,99950.86
2017-10-09T15:35:18.588Z,99946.78
2017-10-09T15:37:44.810Z,99950.02
2017-10-09T15:40:11.034Z,99948.03
2017-10-09T15:42:37.291Z,99959.20
2017-10-09T15:45:03.510Z,99961.64
2017-10-09T15:47:29.750Z,99959.47
2017-10-09T15:49:55.970Z,99964.41
2017-10-09T15:52:22.190Z,99969.69
2017-10-09T15:54:48.457Z,99976.78
2017-10-09T15:57:14.772Z,99977.86
2017-10-09T15:59:41.064Z,99988.13
2017-10-09T16:02:07.273Z,99991.33
2017-10-09T16:04:33.578Z,99992.26
2017-10-09T16:06:59.965Z,99994.61
2017-10-09T16:09:26.525Z,99996.78
2017-10-09T16:11:52.756Z,100003.45
2017-10-09T16:14:19.290Z,100010.08
2017-10-09T16:16:45.668Z,100015.42
2017-10-09T16:19:11.929Z,100004.88
2017-10-09T16:21:38.221Z,100017.90
2017-10-09T16:24:04.465Z,100022.67
2017-10-09T16:26:30.717Z,100028.23
2017-10-09T16:28:56.959Z,100026.73
2017-10-09T16:31:23.212Z,100031.81
2017-10-09T16:33:49.432Z,100037.80
2017-10-09T16:36:15.655Z,100044.59
2017-10-09T16:38:41.915Z,100045.86
2017-10-09T16:41:08.246Z,100052.09
2017-10-09T16:43:34.477Z,100051.16
2017-10-09T16:46:00.688Z,100060.66
2017-10-09T16:48:26.905Z,100054.62
2017-10-09T16:50:53.128Z,100056.64
2017-10-09T16:53:19.402Z,100057.99
2017-10-09T16:55:45.598Z,100054.70
2017-10-09T16:58:11.806Z,100055.08
2017-10-09T17:00:38.219Z,100065.78
2017-10-09T17:03:04.420Z,100068.78
2017-10-09T17:05:30.630Z,100068.31
2017-10-09T17:07:56.833Z,100065.67
2017-10-09T17:10:23.085Z,100074.67
2017-10-09T17:12:49.296Z,100078.88
2017-10-09T17:15:15.500Z,100079.89
2017-10-09T17:17:41.838Z,100085.44
2017-10-09T17:20:08.063Z,100086.31
2017-10-09T17:22:34.352Z,100088.58
2017-10-09T17:25:00.552Z,100095.16
2017-10-09T17:27:26.753Z,100096.84
2017-10-09T17:29:53.061Z,100102.01
2017-10-09T17:32:19.295Z,100108.03
2017-10-09T17:34:45.637Z,100104.27
2017-10-09T17:37:11.839Z,100106.28
2017-10-09T17:39:38.046Z,100101.21
2017-10-09T17:42:04.264Z,100102.22
2017-10-09T17:44:30.502Z,100098.83
2017-10-09T17:46:56.707Z,100105.32
2017-10-09T17:49:22.923Z,100107.45
2017-10-09T17:51:49.252Z,100111.66
2017-10-09T17:54:15.465Z,100114.19
2017-10-09T17:56:41.663Z,100112.33
2017-10-09T17:59:07.869Z,100115.97
2017-10-09T18:01:34.074Z,100115.10
2017-10-09T18:04:00.297Z,100117.38
2017-10-09T18:06:26.522Z,100117.62
2017-10-09T18:08:52.755Z,100120.08
2017-10-09T18:11:19.014Z,100122.55
2017-10-09T18:13:45.231Z,100118.71
2017-10-09T18:16:11.439Z,100123.37
2017-10-09T18:18:37.667Z,100134.02
2017-10-09T18:21:03.890Z,100128.53
2017-10-09T18:23:30.132Z,100142.63
2017-10-09T18:25:56.358Z,100136.15
2017-10-09T18:28:22.556Z,100141.02
2017-10-09T18:30:48.761Z,100140.08
2017-10-09T18:33:14.997Z,100143.36
2017-10-09T18:35:41.349Z,100148.13
2017-10-09T18:38:07.567Z,100147.02
2017-10-09T18:40:33.832Z,100154.23
2017-10-09T18:43:00.063Z,100160.64
2017-10-09T18:45:26.268Z,100156.92
2017-10-09T18:47:53.524Z,100151.78
2017-10-09T18:50:19.740Z,100155.17
2017-10-09T18:52:45.935Z,100169.61
2017-10-09T18:55:12.164Z,100166.61
2017-10-09T18:57:38.960Z,100161.66
2017-10-09T19:00:05.168Z,100168.27
2017-10-09T19:02:31.516Z,100166.82
2017-10-09T19:04:57.710Z,100167.97
2017-10-09T19:07:23.946Z,100168.56
2017-10-09T19:09:50.143Z,100170.84
2017-10-09T19:12:16.386Z,100170.23
2017-10-09T19:14:42.606Z,100174.97
2017-10-09T19:17:08.831Z,100179.53
2017-10-09T19:19:35.087Z,100179.80
2017-10-09T19:22:01.297Z,100178.36
2017-10-09T19:24:27.520Z,100180.91
2017-10-09T19:26:53.748Z,100179.91
2017-10-09T19:29:19.988Z,100184.39
2017-10-09T19:31:46.255Z,100190.71
2017-10-09T19:34:12.471Z,100189.28
2017-10-09T19:36:38.699Z,100192.69
2017-10-09T19:39:04.918Z,100186.96
2017-10-09T19:41:31.138Z,100190.84
2017-10-09T19:43:57.428Z,100194.53
2017-10-09T19:46:23.631Z,100191.86
2017-10-09T19:48:49.834Z,100187.44
2017-10-09T19:51:16.054Z,100191.05
2017-10-09T19:53:42.279Z,100196.49
2017-10-09T19:56:08.528Z,100195.64
2017-10-09T19:58:34.735Z,100191.34
2017-10-09T20:01:00.994Z,100191.11
2017-10-09T20:03:27.229Z,100196.29
2017-10-09T20:05:53.443Z,100199.73
2017-10-09T20:08:19.702Z,100199.06
2017-10-09T20:10:45.926Z,100199.27
2017-10-09T20:13:12.130Z,100186.92
2017-10-09T20:15:38.358Z,100199.17
2017-10-09T20:18:04.581Z,100199.34
2017-10-09T20:20:30.838Z,100208.01
2017-10-09T20:22:57.049Z,100205.05
2017-10-09T20:25:23.264Z,100210.30
2017-10-09T20:27:49.490Z,100209.47
2017-10-09T20:30:15.717Z,100214.16
2017-10-09T20:32:42.014Z,100209.27
2017-10-09T20:35:08.247Z,100212.77
2017-10-09T20:37:34.447Z,100217.97
2017-10-09T20:40:00.680Z,100216.28
2017-10-09T20:42:26.891Z,100213.14
2017-10-09T20:44:53.151Z,100214.30
2017-10-09T20:47:19.369Z,100211.66
2017-10-09T20:49:45.572Z,100211.60
2017-10-09T20:52:11.820Z,100213.59
2017-10-09T20:54:38.132Z,100216.94
2017-10-09T20:57:04.401Z,100215.90
2017-10-09T20:59:30.647Z,100214.78
2017-10-09T21:01:56.863Z,100221.52
2017-10-09T21:04:23.093Z,100216.32
2017-10-09T21:06:49.325Z,100223.80
2017-10-09T21:09:15.572Z,100217.13
2017-10-09T21:11:41.782Z,100213.05
2017-10-09T21:14:08.032Z,100220.09
2017-10-09T21:16:34.267Z,100214.95
2017-10-09T21:19:00.494Z,100214.93
2017-10-09T21:21:26.765Z,100218.05
2017-10-09T21:23:52.981Z,100221.43
2017-10-09T21:26:19.191Z,100222.27
2017-10-09T21:28:45.436Z,100204.77
2017-10-09T21:31:11.661Z,100213.78
2017-10-09T21:33:37.887Z,100222.20
2017-10-09T21:36:04.122Z,100229.31
2017-10-09T21:38:30.340Z,100228.78
2017-10-09T21:40:56.580Z,100229.50
2017-10-09T21:43:22.841Z,100227.95
2017-10-09T21:45:49.108Z,100230.97
2017-10-09T21:48:15.341Z,100221.25
2017-10-09T21:50:41.555Z,100222.88
2017-10-09T21:53:07.793Z,100223.10
2017-10-09T21:55:34.020Z,100220.55
2017-10-09T21:58:00.270Z,100222.13
2017-10-09T22:00:26.498Z,100222.03
2017-10-09T22:02:52.725Z,100223.70
2017-10-09T22:05:18.956Z,100224.06
2017-10-09T22:07:45.189Z,100228.83
2017-10-09T22:10:11.448Z,100226.23
2017-10-09T22:12:37.670Z,100232.38
2017-10-09T22:15:03.897Z,100235.25
2017-10-09T22:17:30.120Z,100235.31
2017-10-09T22:19:56.340Z,100236.64
2017-10-09T22:22:22.563Z,100235.91
2017-10-09T22:24:48.776Z,100240.05
2017-10-09T22:27:15.008Z,100234.46
2017-10-09T22:29:41.251Z,100234.23
2017-10-09T22:32:07.469Z,100236.11
2017-10-09T22:34:33.747Z,100237.64
2017-10-09T22:36:59.965Z,100243.72
2017-10-09T22:39:26.282Z,100239.73
2017-10-09T22:41:52.545Z,100242.50
2017-10-09T22:44:18.792Z,100238.73
2017-10-09T22:46:45.053Z,100239.47
2017-10-09T22:49:11.288Z,100234.02
2017-10-09T22:51:37.539Z,100243.58
2017-10-09T22:54:03.820Z,100235.68
2017-10-09T22:56:30.066Z,100244.86
2017-10-09T22:58:56.323Z,100247.52
2017-10-09T23:01:22.595Z,100249.11
2017-10-09T23:03:48.834Z,100247.30
2017-10-09T23:06:15.050Z,100250.44
2017-10-09T23:08:41.428Z,100252.31
2017-10-09T23:11:07.680Z,100252.91
2017-10-09T23:13:33.921Z,100257.86
2017-10-09T23:16:00.170Z,100250.34
2017-10-09T23:18:26.431Z,100253.31
2017-10-09T23:20:52.672Z,100252.39
2017-10-09T23:23:18.919Z,100253.20
2017-10-09T23:25:45.209Z,100256.30
2017-10-09T23:28:11.444Z,100261.57
2017-10-09T23:30:37.688Z,100254.91
2017-10-09T23:33:03.940Z,100258.37
2017-10-09T23:35:30.172Z,100248.34
2017-10-09T23:37:56.416Z,100258.70
2017-10-09T23:40:22.653Z,100262.54
2017-10-09T23:42:48.886Z,100264.70
2017-10-09T23:45:15.114Z,100262.91
2017-10-09T23:47:41.337Z,100264.81
2017-10-09T23:50:07.614Z,100265.77
2017-10-09T23:52:33.851Z,100266.33
2017-10-09T23:55:00.093Z,100260.69
2017-10-09T23:57:26.333Z,100267.00
2017-10-09T23:59:52.580Z,100265.55
